Time;durP1;ratioP1;P1;durP2;ratioP2;P2;SDS_P1;SDS_P2;PMS_P1;PMS_P2;Temp;Humidity;BMP_temperature;BMP_pressure;BME280_temperature;BME280_humidity;BME280_pressure;Samples;Min_cycle;Max_cycle;Signal;HPM_P1;HPM_P2
2021/07/28 15:32:33;;;;;;;3.85;2.50;;;23.80;99.90;;;;;;5152294;27;20103;-68
2021/07/28 15:34:59;;;;;;;2.92;1.83;;;23.30;99.90;;;;;;5152837;27;20357;-68
2021/07/28 15:37:25;;;;;;;2.58;1.88;;;23.30;99.90;;;;;;5152154;27;20088;-70
2021/07/28 15:40:07;;;;;;;2.45;1.58;;;23.20;99.90;;;;;;5152444;27;20102;-67
2021/07/28 15:42:42;;;;;;;3.17;2.05;;;23.10;99.90;;;;;;5150717;27;20540;-67
2021/07/28 15:45:10;;;;;;;2.33;1.85;;;23.00;99.90;;;;;;5152362;27;20421;-67
2021/07/28 15:47:38;;;;;;;3.88;2.97;;;23.00;99.90;;;;;;5151630;27;20015;-67
2021/07/28 15:50:05;;;;;;;3.45;2.45;;;23.00;99.90;;;;;;5151659;27;20352;-68
2021/07/28 15:52:31;;;;;;;2.08;1.80;;;23.10;99.90;;;;;;5151565;27;20019;-67
2021/07/28 15:55:00;;;;;;;4.55;2.15;;;23.30;99.90;;;;;;5150501;27;20023;-68
2021/07/28 15:57:26;;;;;;;2.33;1.90;;;23.40;99.90;;;;;;5151829;27;20536;-68
2021/07/28 15:59:52;;;;;;;2.78;2.00;;;23.40;99.90;;;;;;5151485;27;20098;-67
2021/07/28 16:02:17;;;;;;;3.10;2.25;;;23.40;99.90;;;;;;5151334;27;20079;-69
2021/07/28 16:04:43;;;;;;;;;;;23.40;99.90;;;;;;5151488;27;20023;-68
2021/07/28 16:07:10;;;;;;;2.60;2.10;;;23.40;99.90;;;;;;5152083;27;19923;-66
2021/07/28 16:09:35;;;;;;;2.85;2.22;;;23.30;99.90;;;;;;5149905;27;20376;-65
2021/07/28 16:12:01;;;;;;;2.83;2.38;;;23.30;99.90;;;;;;5151270;27;20034;-65
2021/07/28 16:14:36;;;;;;;;;;;23.30;99.90;;;;;;5153334;27;20031;-65
2021/07/28 16:17:18;;;;;;;2.13;1.73;;;23.20;99.90;;;;;;5152587;27;20338;-65
2021/07/28 16:19:45;;;;;;;4.05;2.30;;;23.10;99.90;;;;;;5152950;27;20023;-65
2021/07/28 16:22:30;;;;;;;2.85;1.50;;;23.00;99.90;;;;;;5151499;27;20023;-66
2021/07/28 16:24:56;;;;;;;1.83;1.60;;;23.00;99.90;;;;;;5152547;27;20031;-65
2021/07/28 16:27:23;;;;;;;2.45;1.90;;;22.90;99.90;;;;;;5151155;27;20047;-65
2021/07/28 16:29:49;;;;;;;2.70;1.50;;;22.80;99.90;;;;;;5151219;27;20023;-65
2021/07/28 16:32:14;;;;;;;;;;;22.80;99.90;;;;;;5152196;27;20095;-65
2021/07/28 16:34:40;;;;;;;3.13;1.80;;;22.60;99.90;;;;;;5150810;27;20363;-64
2021/07/28 16:37:05;;;;;;;4.45;2.22;;;22.60;99.90;;;;;;5151152;27;20417;-65
2021/07/28 16:39:32;;;;;;;;;;;22.50;99.90;;;;;;5151099;27;20023;-65
2021/07/28 16:41:58;;;;;;;4.15;1.88;;;22.50;99.90;;;;;;5147537;27;19986;-65
2021/07/28 16:44:25;;;;;;;3.30;1.85;;;22.50;99.90;;;;;;5136658;27;20023;-65
2021/07/28 16:46:51;;;;;;;3.88;1.52;;;22.40;99.90;;;;;;5136278;27;20019;-66
2021/07/28 16:49:17;;;;;;;2.83;1.58;;;22.40;99.90;;;;;;5136147;27;20447;-65
2021/07/28 16:51:43;;;;;;;3.33;1.85;;;22.30;99.90;;;;;;5136521;27;20030;-65
2021/07/28 16:54:08;;;;;;;2.63;1.55;;;22.10;99.90;;;;;;5135696;27;20098;-65
2021/07/28 16:56:34;;;;;;;2.85;1.90;;;22.00;99.90;;;;;;5135923;27;20466;-65
2021/07/28 16:58:59;;;;;;;2.80;1.52;;;21.80;99.90;;;;;;5136718;27;20035;-65
2021/07/28 17:01:25;;;;;;;3.67;2.03;;;21.90;99.90;;;;;;5137100;27;20031;-65
2021/07/28 17:03:51;;;;;;;2.00;1.60;;;21.80;99.90;;;;;;5137672;27;20110;-65
2021/07/28 17:06:17;;;;;;;2.70;1.70;;;21.80;99.90;;;;;;5138030;27;20092;-65
2021/07/28 17:08:45;;;;;;;3.75;1.30;;;21.60;99.90;;;;;;5136509;27;20103;-64
2021/07/28 17:11:11;;;;;;;3.22;1.85;;;21.50;99.90;;;;;;5135960;27;20356;-65
2021/07/28 17:13:37;;;;;;;3.60;1.80;;;21.50;99.90;;;;;;5136100;27;20019;-65
2021/07/28 17:16:03;;;;;;;3.30;1.52;;;21.50;99.90;;;;;;5136113;27;20394;-65
2021/07/28 17:18:28;;;;;;;2.55;1.60;;;21.50;99.90;;;;;;5136343;27;20076;-65
2021/07/28 17:20:54;;;;;;;3.55;1.23;;;21.60;99.90;;;;;;5135809;27;20105;-65
2021/07/28 17:23:20;;;;;;;3.03;2.22;;;21.60;99.90;;;;;;5136102;27;20031;-65
2021/07/28 17:25:45;;;;;;;2.53;1.60;;;21.60;99.90;;;;;;5134460;27;20027;-65
2021/07/28 17:28:12;;;;;;;4.60;2.00;;;21.60;99.90;;;;;;5135723;27;20070;-65
2021/07/28 17:30:37;;;;;;;;;;;21.60;99.90;;;;;;5136110;27;20035;-65
2021/07/28 17:33:03;;;;;;;2.25;1.75;;;21.70;99.90;;;;;;5135750;27;20351;-65
2021/07/28 17:35:42;;;;;;;3.17;1.73;;;21.60;99.90;;;;;;5135729;27;20030;-64
2021/07/28 17:38:23;;;;;;;2.22;1.50;;;21.70;99.90;;;;;;5135717;27;20019;-66
2021/07/28 17:40:51;;;;;;;2.25;1.80;;;21.60;99.90;;;;;;5135848;27;20112;-67
2021/07/28 17:43:17;;;;;;;2.10;1.73;;;21.60;99.90;;;;;;5135695;27;20027;-67
2021/07/28 17:45:42;;;;;;;1.85;1.48;;;21.60;99.90;;;;;;5135567;27;20028;-66
2021/07/28 17:48:08;;;;;;;3.38;2.10;;;21.60;99.90;;;;;;5135427;27;20023;-67
2021/07/28 17:50:34;;;;;;;;;;;21.80;99.90;;;;;;5134488;27;20027;-66
2021/07/28 17:52:59;;;;;;;2.40;1.90;;;21.90;99.90;;;;;;5135351;27;19903;-67
2021/07/28 17:55:25;;;;;;;2.42;1.75;;;21.80;99.90;;;;;;5134676;27;20077;-66
2021/07/28 17:57:51;;;;;;;2.03;1.60;;;21.60;99.90;;;;;;5135341;27;20066;-67
2021/07/28 18:00:17;;;;;;;3.47;1.88;;;21.50;99.90;;;;;;5133911;27;20031;-66
2021/07/28 18:02:42;;;;;;;3.88;1.95;;;21.40;99.90;;;;;;5136116;27;20034;-67
2021/07/28 18:05:20;;;;;;;2.63;1.80;;;21.30;99.90;;;;;;5135305;27;20387;-67
2021/07/28 18:07:46;;;;;;;4.72;2.08;;;21.30;99.90;;;;;;5133930;27;20517;-67
2021/07/28 18:10:12;;;;;;;3.95;1.92;;;21.30;99.90;;;;;;5135275;27;20031;-67
2021/07/28 18:12:38;;;;;;;2.72;1.92;;;21.20;99.90;;;;;;5135250;27;20024;-68
2021/07/28 18:15:05;;;;;;;3.35;1.90;;;21.10;99.90;;;;;;5135027;27;20068;-68
2021/07/28 18:17:31;;;;;;;2.53;1.95;;;21.20;99.90;;;;;;5135226;27;20098;-68
2021/07/28 18:19:57;;;;;;;2.85;2.20;;;21.10;99.90;;;;;;5135511;27;20050;-68
2021/07/28 18:22:22;;;;;;;3.63;2.13;;;21.10;99.90;;;;;;5133785;27;20035;-67
2021/07/28 18:24:48;;;;;;;3.00;2.15;;;21.10;99.90;;;;;;5135091;27;20034;-67
2021/07/28 18:27:14;;;;;;;2.90;2.13;;;20.90;99.90;;;;;;5135592;27;20035;-67
2021/07/28 18:29:39;;;;;;;3.35;2.17;;;20.80;99.90;;;;;;5135165;27;20025;-67
2021/07/28 18:32:05;;;;;;;3.88;1.95;;;20.80;99.90;;;;;;5133419;27;20403;-66
2021/07/28 18:34:31;;;;;;;4.47;1.88;;;20.70;99.90;;;;;;5137412;27;20030;-68
2021/07/28 18:36:57;;;;;;;2.53;1.80;;;20.70;99.90;;;;;;5135162;27;20027;-68
2021/07/28 18:39:23;;;;;;;3.72;2.40;;;20.80;99.90;;;;;;5134888;27;20046;-66
2021/07/28 18:41:49;;;;;;;3.65;2.22;;;20.70;99.90;;;;;;5133667;27;20034;-68
2021/07/28 18:44:15;;;;;;;3.00;2.20;;;20.70;99.90;;;;;;5135217;27;20027;-70
2021/07/28 18:46:41;;;;;;;3.22;2.00;;;20.80;99.90;;;;;;5135485;27;20035;-67
2021/07/28 18:49:07;;;;;;;3.35;2.00;;;20.80;99.90;;;;;;5134658;27;20098;-67
2021/07/28 18:51:33;;;;;;;2.60;2.03;;;20.70;99.90;;;;;;5135114;27;20034;-67
2021/07/28 18:54:01;;;;;;;4.47;1.90;;;20.60;99.90;;;;;;5140648;27;20023;-67
2021/07/28 18:56:29;;;;;;;2.78;2.00;;;20.50;99.90;;;;;;5138936;27;20027;-68
2021/07/28 18:58:55;;;;;;;3.55;2.28;;;20.50;99.90;;;;;;5133108;27;20040;-68
2021/07/28 19:01:21;;;;;;;3.42;1.90;;;20.40;99.90;;;;;;5134616;27;20417;-68
2021/07/28 19:03:47;;;;;;;;;;;20.40;99.90;;;;;;5134968;27;20054;-67
2021/07/28 19:06:13;;;;;;;3.97;2.60;;;20.40;99.90;;;;;;5134623;27;20328;-68
2021/07/28 19:08:39;;;;;;;3.88;2.65;;;20.30;99.90;;;;;;5134675;27;20039;-67
2021/07/28 19:11:05;;;;;;;4.82;2.00;;;20.50;99.90;;;;;;5134248;27;20028;-67
2021/07/28 19:13:31;;;;;;;5.60;2.53;;;20.40;99.90;;;;;;5134001;27;20032;-67
2021/07/28 19:15:57;;;;;;;3.72;2.13;;;20.30;99.90;;;;;;5133815;27;20024;-68
2021/07/28 19:18:23;;;;;;;3.67;2.10;;;20.30;99.90;;;;;;5136857;27;20102;-69
2021/07/28 19:20:49;;;;;;;4.00;2.42;;;20.30;99.90;;;;;;5137191;27;20019;-70
2021/07/28 19:23:15;;;;;;;4.50;2.30;;;20.20;99.90;;;;;;5134913;27;20023;-68
2021/07/28 19:25:40;;;;;;;5.97;2.72;;;20.20;99.90;;;;;;5133900;27;20034;-68
2021/07/28 19:28:06;;;;;;;4.15;2.40;;;20.10;99.90;;;;;;5133779;27;20068;-67
2021/07/28 19:30:32;;;;;;;4.18;2.60;;;20.10;99.90;;;;;;5133814;28;20023;-67
2021/07/28 19:32:57;;;;;;;3.25;2.13;;;20.00;99.90;;;;;;5133973;28;20023;-67
2021/07/28 19:35:26;;;;;;;3.13;2.00;;;20.10;99.90;;;;;;5133903;28;20019;-67
2021/07/28 19:37:59;;;;;;;3.40;2.42;;;20.20;99.90;;;;;;5134110;27;20020;-67
2021/07/28 19:40:26;;;;;;;4.05;2.45;;;20.20;99.90;;;;;;5133832;28;20135;-68
2021/07/28 19:42:59;;;;;;;6.30;2.65;;;20.20;99.90;;;;;;5134079;28;20024;-67
2021/07/28 19:45:26;;;;;;;4.13;2.67;;;20.20;99.90;;;;;;5133827;28;20042;-66
2021/07/28 19:47:53;;;;;;;4.45;2.30;;;20.20;99.90;;;;;;5133582;28;20016;-67
2021/07/28 19:50:20;;;;;;;3.38;2.40;;;20.20;99.90;;;;;;5133561;28;20020;-66
2021/07/28 19:52:47;;;;;;;3.22;2.60;;;20.20;99.90;;;;;;5133680;28;20068;-66
2021/07/28 19:55:16;;;;;;;5.03;2.35;;;20.20;99.90;;;;;;5135275;28;20057;-68
2021/07/28 19:57:42;;;;;;;4.90;3.10;;;20.30;99.90;;;;;;5135976;28;20015;-67
2021/07/28 20:00:12;;;;;;;4.97;3.08;;;20.30;99.90;;;;;;5135054;28;20387;-67
2021/07/28 20:02:46;;;;;;;5.05;2.53;;;20.30;99.90;;;;;;5133505;28;20416;-67
2021/07/28 20:05:15;;;;;;;4.60;2.83;;;20.30;99.90;;;;;;5133535;28;20486;-67
2021/07/28 20:07:41;;;;;;;7.47;2.97;;;20.20;99.90;;;;;;5133597;28;20057;-67
2021/07/28 20:10:09;;;;;;;5.10;3.20;;;20.10;99.90;;;;;;5133710;28;20026;-67
2021/07/28 20:12:39;;;;;;;3.90;2.67;;;20.00;99.90;;;;;;5132251;28;20027;-66
2021/07/28 20:15:06;;;;;;;3.95;2.78;;;20.00;99.90;;;;;;5133793;28;20448;-66
2021/07/28 20:17:33;;;;;;;6.95;3.55;;;19.90;99.90;;;;;;5134558;27;20088;-67
2021/07/28 20:19:59;;;;;;;5.05;3.20;;;19.90;99.90;;;;;;5136218;27;20417;-68
2021/07/28 20:22:24;;;;;;;3.35;2.88;;;19.90;99.90;;;;;;5137921;27;20020;-67
2021/07/28 20:24:50;;;;;;;4.18;2.60;;;19.80;99.90;;;;;;5137534;27;20042;-67
2021/07/28 20:27:17;;;;;;;6.78;2.97;;;19.80;99.90;;;;;;5137198;27;20448;-67
2021/07/28 20:29:43;;;;;;;4.40;2.88;;;19.70;99.90;;;;;;5137279;27;20502;-67
2021/07/28 20:32:12;;;;;;;6.57;3.70;;;19.70;99.90;;;;;;5137091;27;20023;-67
2021/07/28 20:34:39;;;;;;;4.45;3.10;;;19.70;99.90;;;;;;5135991;27;20020;-67
2021/07/28 20:37:07;;;;;;;4.70;2.90;;;19.70;99.90;;;;;;5137079;27;20023;-68
2021/07/28 20:39:32;;;;;;;4.35;2.85;;;19.60;99.90;;;;;;5137232;27;20030;-67
2021/07/28 20:41:58;;;;;;;3.70;2.92;;;19.70;99.90;;;;;;5137202;27;20023;-67
2021/07/28 20:44:24;;;;;;;4.80;2.95;;;19.70;99.90;;;;;;5137024;27;20388;-68
2021/07/28 20:46:49;;;;;;;3.60;2.45;;;19.60;99.90;;;;;;5136745;27;20038;-67
2021/07/28 20:49:15;;;;;;;4.05;3.03;;;19.70;99.90;;;;;;5136908;27;20038;-67
2021/07/28 20:51:41;;;;;;;3.35;2.42;;;19.60;99.90;;;;;;5136606;27;20480;-68
2021/07/28 20:54:06;;;;;;;4.30;2.63;;;19.50;99.90;;;;;;5135625;27;20020;-67
2021/07/28 20:56:32;;;;;;;5.63;3.03;;;19.60;99.90;;;;;;5136918;27;20053;-67
2021/07/28 20:58:58;;;;;;;4.38;3.75;;;19.70;99.90;;;;;;5136931;27;20047;-67
2021/07/28 21:01:23;;;;;;;6.53;2.90;;;19.60;99.90;;;;;;5136534;27;20031;-67
2021/07/28 21:03:49;;;;;;;7.43;3.10;;;19.40;99.90;;;;;;5136727;27;20046;-68
2021/07/28 21:06:14;;;;;;;8.40;3.13;;;19.40;99.90;;;;;;5136491;27;20023;-68
2021/07/28 21:08:40;;;;;;;4.22;2.70;;;19.40;99.90;;;;;;5136334;27;20035;-67
2021/07/28 21:11:06;;;;;;;5.43;2.80;;;19.40;99.90;;;;;;5136227;27;20030;-67
2021/07/28 21:13:35;;;;;;;2.88;2.58;;;19.40;99.90;;;;;;5136415;27;20026;-68
2021/07/28 21:16:00;;;;;;;4.22;2.83;;;19.40;99.90;;;;;;5136186;27;20034;-67
2021/07/28 21:18:26;;;;;;;3.70;2.50;;;19.40;99.90;;;;;;5136434;27;20023;-67
2021/07/28 21:20:55;;;;;;;3.13;2.40;;;19.30;99.90;;;;;;5136101;27;20027;-67
2021/07/28 21:23:21;;;;;;;3.78;3.10;;;19.20;99.90;;;;;;5136455;27;20019;-67
2021/07/28 21:25:46;;;;;;;4.78;2.63;;;19.10;99.90;;;;;;5136741;27;20034;-67
2021/07/28 21:28:12;;;;;;;5.25;2.90;;;19.10;99.90;;;;;;5136589;27;20062;-67
2021/07/28 21:30:38;;;;;;;5.57;2.88;;;19.10;99.90;;;;;;5135853;27;20035;-67
2021/07/28 21:33:04;;;;;;;4.18;3.00;;;19.10;99.90;;;;;;5138181;27;20476;-68
2021/07/28 21:35:30;;;;;;;3.50;2.70;;;19.00;99.90;;;;;;5137001;27;20089;-67
2021/07/28 21:37:56;;;;;;;4.53;2.75;;;19.10;99.90;;;;;;5136211;27;20068;-67
2021/07/28 21:40:23;;;;;;;5.13;2.78;;;19.00;99.90;;;;;;5136179;27;20107;-67
2021/07/28 21:42:51;;;;;;;3.42;2.42;;;19.00;99.90;;;;;;5134632;27;20047;-68
2021/07/28 21:48:02;;;;;;;3.58;2.78;;;19.10;99.90;;;;;;5135908;27;20076;-67
2021/07/28 21:50:30;;;;;;;3.72;2.60;;;19.00;99.90;;;;;;5135838;27;20379;-67
2021/07/28 21:53:16;;;;;;;3.53;2.90;;;19.00;99.90;;;;;;5135660;27;20383;-67
2021/07/28 21:55:48;;;;;;;5.03;2.50;;;19.00;99.90;;;;;;5134710;27;20019;-67
2021/07/28 21:58:18;;;;;;;3.75;2.60;;;19.00;99.90;;;;;;5135633;27;20227;-67
2021/07/28 22:00:43;;;;;;;7.88;2.72;;;18.90;99.90;;;;;;5135661;27;20023;-67
2021/07/28 22:03:10;;;;;;;3.88;2.85;;;18.90;99.90;;;;;;5135811;27;20049;-67
2021/07/28 22:05:36;;;;;;;4.28;2.35;;;18.90;99.90;;;;;;5135784;27;20031;-67
2021/07/28 22:08:02;;;;;;;7.20;3.25;;;18.90;99.90;;;;;;5135514;27;20529;-67
2021/07/28 22:10:28;;;;;;;5.38;2.60;;;18.90;99.90;;;;;;5135355;27;20046;-67
2021/07/28 22:12:55;;;;;;;4.43;2.70;;;18.90;99.90;;;;;;5135694;27;20015;-67
2021/07/28 22:15:21;;;;;;;4.80;2.30;;;18.90;99.90;;;;;;5136356;27;20478;-67
2021/07/28 22:17:47;;;;;;;;;;;18.80;99.90;;;;;;5136376;27;20057;-66
2021/07/28 22:20:16;;;;;;;3.17;2.53;;;18.80;99.90;;;;;;5135827;27;20368;-66
2021/07/28 22:22:43;;;;;;;4.93;2.83;;;18.80;99.90;;;;;;5134473;27;20019;-67
2021/07/28 22:25:09;;;;;;;4.65;2.85;;;18.80;99.90;;;;;;5134585;27;20487;-66
2021/07/28 22:27:35;;;;;;;4.30;2.53;;;18.80;99.90;;;;;;5133960;27;20030;-66
2021/07/28 22:30:01;;;;;;;5.82;3.10;;;18.80;99.90;;;;;;5134941;27;20023;-66
2021/07/28 22:32:27;;;;;;;4.00;2.60;;;18.80;99.90;;;;;;5134830;27;20041;-66
2021/07/28 22:34:52;;;;;;;4.70;2.97;;;18.70;99.90;;;;;;5136128;27;20474;-66
2021/07/28 22:37:18;;;;;;;6.57;3.00;;;18.70;99.90;;;;;;5135343;27;20027;-66
2021/07/28 22:39:43;;;;;;;4.75;3.03;;;18.60;99.90;;;;;;5135255;27;20023;-66
2021/07/28 22:42:09;;;;;;;4.50;3.08;;;18.60;99.90;;;;;;5135102;27;20031;-66
2021/07/28 22:44:35;;;;;;;6.70;3.05;;;18.50;99.90;;;;;;5135385;27;20027;-66
2021/07/28 22:47:12;;;;;;;8.38;3.17;;;18.50;99.90;;;;;;5134651;27;20027;-66
2021/07/28 22:55:06;;;;;;;4.22;3.05;;;18.40;99.90;;;;;;5134625;27;20030;-66
2021/07/28 22:57:31;;;;;;;3.92;3.20;;;18.30;99.90;;;;;;5134423;27;20036;-66
2021/07/28 23:07:51;;;;;;;3.83;2.70;;;18.40;99.90;;;;;;5134691;27;20038;-66
2021/07/28 23:10:16;;;;;;;7.35;2.53;;;18.40;99.90;;;;;;5134628;27;20352;-66
2021/07/28 23:12:42;;;;;;;4.43;3.22;;;18.40;99.90;;;;;;5134175;27;20111;-66
2021/07/28 23:15:08;;;;;;;5.40;3.08;;;18.40;99.90;;;;;;5134296;27;20379;-66
2021/07/28 23:17:33;;;;;;;5.28;2.78;;;18.40;99.90;;;;;;5135311;27;20026;-67
2021/07/28 23:19:59;;;;;;;5.10;3.22;;;18.40;99.90;;;;;;5136030;27;20019;-66
2021/07/28 23:22:26;;;;;;;4.13;2.67;;;18.40;99.90;;;;;;5134416;27;20051;-66
2021/07/28 23:24:51;;;;;;;5.57;3.20;;;18.40;99.90;;;;;;5135759;27;20369;-67
2021/07/28 23:27:17;;;;;;;3.95;2.55;;;18.40;99.90;;;;;;5135620;27;20027;-66
2021/07/28 23:29:42;;;;;;;5.35;2.80;;;18.40;99.90;;;;;;5136576;27;20035;-67
2021/07/28 23:32:08;;;;;;;6.13;3.17;;;18.30;99.90;;;;;;5134960;28;20113;-66
2021/07/28 23:34:34;;;;;;;5.32;2.63;;;18.30;99.90;;;;;;5134325;28;20099;-66
2021/07/28 23:37:00;;;;;;;5.60;3.15;;;18.30;99.90;;;;;;5134573;28;20019;-66
2021/07/28 23:39:26;;;;;;;4.63;2.42;;;18.30;99.90;;;;;;5134067;28;20028;-66
2021/07/28 23:41:52;;;;;;;5.75;2.90;;;18.30;99.90;;;;;;5134066;28;20122;-66
2021/07/28 23:44:18;;;;;;;7.40;2.70;;;18.30;99.90;;;;;;5134152;28;20111;-66
2021/07/28 23:46:43;;;;;;;3.28;2.65;;;18.40;99.90;;;;;;5133914;28;20031;-66
2021/07/28 23:49:09;;;;;;;4.53;2.70;;;18.30;99.90;;;;;;5133816;28;20089;-66
2021/07/28 23:51:35;;;;;;;3.30;2.65;;;18.30;99.90;;;;;;5133666;27;20430;-66
2021/07/28 23:54:00;;;;;;;3.80;2.85;;;18.30;99.90;;;;;;5137338;27;20031;-66
2021/07/28 23:56:26;;;;;;;4.93;2.95;;;18.30;99.90;;;;;;5137923;27;20051;-66
2021/07/28 23:58:51;;;;;;;5.28;2.92;;;18.30;99.90;;;;;;5138240;27;20409;-67
